Mogoca, Russia
Current Conditions -  °F | °C
As of 5:30 PM on Sunday 23 Nov 2014 (Local Time) from UIAA Reporting Station
Scattered Clouds Scattered Clouds  
Wind Chill:   Ceiling: Unl
Heat Index: 19°   Visibility: 6mi
Dew Point:   Wind: 9mph
Humidity: 58%   Direction: 220°SW
Pressure: 30.09"   Gusts: NA
Location:  53.75°N, 119.73°E
Report Text: UIAA 230830Z 22004MPS 9999 SCT200 M07/M14 Q1019 NOSIG RMKQFE705 29CLRD70
Loading
Personal Weather Stations






























Interactive Weather Map New forecast layout! Learn more

10-Day Weather Forecast

Advertisements
Track Severe Weather on mobile